WAT47 FSIA-FMCH
Flight info
| Callsign | WAT47 |
|---|---|
| Flight time | 2h 5m |
| Altitude | 34000 |
| Route | IMPOX1B IMPOX DCT MIRON/N0477F350 UN305 BERIL/N0472F340 UN305 VOHID VOHID1V |
| Aircraft | B77L/H-SDE1E2E3FGHIJ2J3J4J5M1RWXY/LB1D1 |
Departure
| Time | 2026-04-27 13:22 |
|---|---|
| Airport | Seychelles International Airport (FSIA) |
Arrival
| Time | 2026-04-27 15:27 |
|---|---|
| Airport | Prince Said Ibrahim International Airport (FMCH) |
| Time | Latitude | Longitude | Altitude | Speed | Heading |
|---|---|---|---|---|---|
| 2026-04-27 12:58 | -4.67045 | 55.51191 | 23 ft | 0 kts | 213° |
| 2026-04-27 13:15 | -4.67039 | 55.51196 | 23 ft | 2 kts | 219° |
| 2026-04-27 13:15 | -4.67029 | 55.51206 | 22 ft | 2 kts | 238° |
| 2026-04-27 13:16 | -4.67022 | 55.51220 | 21 ft | 2 kts | 252° |
| 2026-04-27 13:16 | -4.67019 | 55.51234 | 21 ft | 2 kts | 265° |
| 2026-04-27 13:16 | -4.67018 | 55.51250 | 21 ft | 2 kts | 264° |
| 2026-04-27 13:16 | -4.67016 | 55.51265 | 21 ft | 2 kts | 263° |
| 2026-04-27 13:17 | -4.67014 | 55.51279 | 21 ft | 2 kts | 263° |
| 2026-04-27 13:17 | -4.67013 | 55.51289 | 21 ft | 0 kts | 263° |
| 2026-04-27 13:19 | -4.67007 | 55.51256 | 21 ft | 7 kts | 294° |
| 2026-04-27 13:19 | -4.66976 | 55.51213 | 21 ft | 8 kts | 317° |
| 2026-04-27 13:19 | -4.66922 | 55.51198 | 21 ft | 8 kts | 6° |
| 2026-04-27 13:19 | -4.66869 | 55.51175 | 20 ft | 9 kts | 305° |
| 2026-04-27 13:20 | -4.66832 | 55.51122 | 21 ft | 9 kts | 305° |
| 2026-04-27 13:20 | -4.66790 | 55.51067 | 21 ft | 9 kts | 308° |
| 2026-04-27 13:20 | -4.66731 | 55.51052 | 21 ft | 9 kts | 25° |
| 2026-04-27 13:20 | -4.66686 | 55.51085 | 21 ft | 5 kts | 39° |
| 2026-04-27 13:21 | -4.66688 | 55.51114 | 21 ft | 7 kts | 111° |
| 2026-04-27 13:21 | -4.66733 | 55.51188 | 20 ft | 23 kts | 125° |
| 2026-04-27 13:21 | -4.67006 | 55.51574 | 21 ft | 114 kts | 125° |
| 2026-04-27 13:21 | -4.67613 | 55.52448 | 138 ft | 181 kts | 127° |
| 2026-04-27 13:22 | -4.68337 | 55.53466 | 1165 ft | 185 kts | 126° |
| 2026-04-27 13:22 | -4.69066 | 55.54497 | 2217 ft | 184 kts | 126° |
| 2026-04-27 13:22 | -4.69797 | 55.55549 | 2915 ft | 189 kts | 125° |
| 2026-04-27 13:22 | -4.70554 | 55.56642 | 3580 ft | 197 kts | 126° |
| 2026-04-27 13:23 | -4.71372 | 55.57811 | 4120 ft | 213 kts | 126° |
| 2026-04-27 13:23 | -4.72247 | 55.59061 | 4696 ft | 229 kts | 126° |
| 2026-04-27 13:23 | -4.73206 | 55.60418 | 5324 ft | 246 kts | 130° |
| 2026-04-27 13:23 | -4.74533 | 55.61533 | 5922 ft | 260 kts | 154° |
| 2026-04-27 13:24 | -4.76333 | 55.61998 | 6490 ft | 275 kts | 181° |
| 2026-04-27 13:24 | -4.78202 | 55.61551 | 7243 ft | 281 kts | 210° |
| 2026-04-27 13:24 | -4.79648 | 55.60260 | 8088 ft | 283 kts | 237° |
| 2026-04-27 13:24 | -4.80331 | 55.58441 | 8918 ft | 287 kts | 261° |
| 2026-04-27 13:25 | -4.80560 | 55.56441 | 9656 ft | 293 kts | 264° |
| 2026-04-27 13:25 | -4.80904 | 55.54415 | 10440 ft | 299 kts | 251° |
| 2026-04-27 13:25 | -4.81909 | 55.52550 | 10988 ft | 317 kts | 232° |
| 2026-04-27 13:25 | -4.83511 | 55.50923 | 11569 ft | 335 kts | 221° |
| 2026-04-27 13:26 | -4.85328 | 55.49400 | 12193 ft | 352 kts | 220° |
| 2026-04-27 13:26 | -4.87271 | 55.47797 | 12868 ft | 368 kts | 220° |
| 2026-04-27 13:26 | -4.89284 | 55.46124 | 13559 ft | 383 kts | 220° |
| 2026-04-27 13:26 | -4.91353 | 55.44398 | 14350 ft | 396 kts | 220° |
| 2026-04-27 13:27 | -4.93498 | 55.42607 | 15359 ft | 403 kts | 220° |
| 2026-04-27 13:27 | -4.95646 | 55.40812 | 16420 ft | 409 kts | 220° |
| 2026-04-27 13:27 | -4.97868 | 55.38954 | 17434 ft | 415 kts | 220° |
| 2026-04-27 13:27 | -5.00079 | 55.37105 | 18384 ft | 421 kts | 220° |
| 2026-04-27 13:28 | -5.02344 | 55.35210 | 19295 ft | 427 kts | 220° |
| 2026-04-27 13:28 | -5.04615 | 55.33309 | 20176 ft | 433 kts | 219° |
| 2026-04-27 13:28 | -5.06951 | 55.31354 | 21035 ft | 438 kts | 219° |
| 2026-04-27 13:28 | -5.09190 | 55.29257 | 21838 ft | 445 kts | 226° |
| 2026-04-27 13:29 | -5.11116 | 55.26796 | 22631 ft | 452 kts | 236° |
| 2026-04-27 13:29 | -5.12635 | 55.24035 | 23489 ft | 457 kts | 245° |
| 2026-04-27 13:29 | -5.13816 | 55.21067 | 24356 ft | 461 kts | 249° |
| 2026-04-27 13:29 | -5.14932 | 55.18081 | 25197 ft | 465 kts | 249° |
| 2026-04-27 13:30 | -5.16077 | 55.15011 | 26039 ft | 470 kts | 249° |
| 2026-04-27 13:30 | -5.17225 | 55.11940 | 26876 ft | 475 kts | 249° |
| 2026-04-27 13:30 | -5.18383 | 55.08842 | 27729 ft | 479 kts | 249° |
| 2026-04-27 13:30 | -5.19556 | 55.05706 | 28603 ft | 483 kts | 249° |
| 2026-04-27 13:31 | -5.20738 | 55.02550 | 29501 ft | 486 kts | 249° |
| 2026-04-27 13:31 | -5.21924 | 54.99384 | 30551 ft | 486 kts | 249° |
| 2026-04-27 13:31 | -5.23085 | 54.96283 | 31707 ft | 481 kts | 249° |
| 2026-04-27 13:31 | -5.24253 | 54.93166 | 32853 ft | 477 kts | 250° |
| 2026-04-27 13:32 | -5.25420 | 54.90051 | 33973 ft | 475 kts | 250° |
| 2026-04-27 13:32 | -5.26563 | 54.86998 | 35038 ft | 473 kts | 250° |
| 2026-04-27 13:32 | -5.27722 | 54.83904 | 36007 ft | 472 kts | 250° |
| 2026-04-27 13:32 | -5.28866 | 54.80850 | 36485 ft | 472 kts | 250° |
| 2026-04-27 13:33 | -5.30022 | 54.77763 | 36894 ft | 470 kts | 250° |
| 2026-04-27 13:33 | -5.31175 | 54.74681 | 37197 ft | 469 kts | 250° |
| 2026-04-27 13:33 | -5.32322 | 54.71619 | 37493 ft | 468 kts | 250° |
| 2026-04-27 13:33 | -5.33474 | 54.68541 | 37784 ft | 468 kts | 250° |
| 2026-04-27 13:34 | -5.35792 | 54.62346 | 37826 ft | 469 kts | 250° |
| 2026-04-27 13:34 | -5.38105 | 54.56163 | 37826 ft | 468 kts | 250° |
| 2026-04-27 13:35 | -5.40409 | 54.50003 | 37826 ft | 467 kts | 250° |
| 2026-04-27 13:35 | -5.42723 | 54.43812 | 37826 ft | 467 kts | 250° |
| 2026-04-27 13:36 | -5.45001 | 54.37718 | 37825 ft | 466 kts | 250° |
| 2026-04-27 13:36 | -5.47261 | 54.31670 | 37827 ft | 464 kts | 250° |
| 2026-04-27 13:37 | -5.49530 | 54.25594 | 37827 ft | 466 kts | 250° |
| 2026-04-27 13:37 | -5.51803 | 54.19504 | 37829 ft | 465 kts | 250° |
| 2026-04-27 13:38 | -5.54083 | 54.13396 | 37833 ft | 466 kts | 250° |
| 2026-04-27 13:38 | -5.56340 | 54.07347 | 37839 ft | 465 kts | 250° |
| 2026-04-27 13:39 | -5.58605 | 54.01273 | 37844 ft | 463 kts | 250° |
| 2026-04-27 13:39 | -5.60869 | 53.95200 | 37846 ft | 463 kts | 250° |
| 2026-04-27 13:40 | -5.63126 | 53.89144 | 37847 ft | 464 kts | 250° |
| 2026-04-27 13:40 | -5.65388 | 53.83071 | 37847 ft | 463 kts | 250° |
| 2026-04-27 13:41 | -5.67649 | 53.77002 | 37847 ft | 464 kts | 250° |
| 2026-04-27 13:41 | -5.69912 | 53.70923 | 37847 ft | 465 kts | 250° |
| 2026-04-27 13:42 | -5.72160 | 53.64881 | 37846 ft | 464 kts | 250° |
| 2026-04-27 13:42 | -5.74427 | 53.58787 | 37845 ft | 463 kts | 250° |
| 2026-04-27 13:43 | -5.76668 | 53.52763 | 37842 ft | 462 kts | 250° |
| 2026-04-27 13:43 | -5.78917 | 53.46713 | 37835 ft | 462 kts | 250° |
| 2026-04-27 13:44 | -5.81162 | 53.40672 | 37830 ft | 461 kts | 250° |
| 2026-04-27 13:44 | -5.83397 | 53.34654 | 37828 ft | 463 kts | 250° |
| 2026-04-27 13:45 | -5.85662 | 53.28556 | 37828 ft | 461 kts | 250° |
| 2026-04-27 13:45 | -5.87905 | 53.22511 | 37827 ft | 462 kts | 250° |
| 2026-04-27 13:46 | -5.90145 | 53.16477 | 37827 ft | 460 kts | 250° |
| 2026-04-27 13:46 | -5.92373 | 53.10470 | 37828 ft | 459 kts | 250° |
| 2026-04-27 13:47 | -5.94600 | 53.04464 | 37827 ft | 460 kts | 250° |
| 2026-04-27 13:47 | -5.96835 | 52.98434 | 37827 ft | 459 kts | 250° |
| 2026-04-27 13:48 | -5.99059 | 52.92432 | 37827 ft | 459 kts | 250° |
| 2026-04-27 13:48 | -6.01281 | 52.86431 | 37827 ft | 460 kts | 250° |
| 2026-04-27 13:49 | -6.04103 | 52.80683 | 37830 ft | 460 kts | 240° |
| 2026-04-27 13:49 | -6.07376 | 52.75160 | 37827 ft | 461 kts | 240° |
| 2026-04-27 13:50 | -6.10649 | 52.69635 | 37826 ft | 460 kts | 240° |
| 2026-04-27 13:50 | -6.13930 | 52.64092 | 37825 ft | 461 kts | 240° |
| 2026-04-27 13:51 | -6.17199 | 52.58564 | 37831 ft | 461 kts | 240° |
| 2026-04-27 13:51 | -6.20470 | 52.53030 | 37837 ft | 461 kts | 240° |
| 2026-04-27 13:52 | -6.23745 | 52.47488 | 37842 ft | 461 kts | 240° |
| 2026-04-27 13:52 | -6.27033 | 52.41921 | 37846 ft | 462 kts | 240° |
| 2026-04-27 13:53 | -6.31953 | 52.33586 | 37851 ft | 462 kts | 240° |
| 2026-04-27 13:54 | -6.35209 | 52.28070 | 37849 ft | 458 kts | 240° |
| 2026-04-27 13:54 | -6.38489 | 52.22510 | 37849 ft | 461 kts | 240° |
| 2026-04-27 13:55 | -6.41761 | 52.16963 | 37847 ft | 462 kts | 240° |
| 2026-04-27 13:55 | -6.45059 | 52.11370 | 37849 ft | 462 kts | 240° |
| 2026-04-27 13:56 | -6.48330 | 52.05821 | 37850 ft | 462 kts | 240° |
| 2026-04-27 13:56 | -6.51635 | 52.00212 | 37849 ft | 463 kts | 240° |
| 2026-04-27 13:57 | -6.54910 | 51.94652 | 37846 ft | 462 kts | 240° |
| 2026-04-27 13:57 | -6.58191 | 51.89080 | 37849 ft | 464 kts | 240° |
| 2026-04-27 13:58 | -6.61481 | 51.83492 | 37846 ft | 463 kts | 240° |
| 2026-04-27 13:58 | -6.64769 | 51.77904 | 37850 ft | 463 kts | 241° |
| 2026-04-27 13:59 | -6.68033 | 51.72355 | 37839 ft | 463 kts | 240° |
| 2026-04-27 13:59 | -6.71340 | 51.66732 | 37832 ft | 463 kts | 240° |
| 2026-04-27 14:00 | -6.74617 | 51.61158 | 37834 ft | 463 kts | 241° |
| 2026-04-27 14:00 | -6.77901 | 51.55571 | 37842 ft | 463 kts | 240° |
| 2026-04-27 14:01 | -6.81206 | 51.49945 | 37832 ft | 464 kts | 240° |
| 2026-04-27 14:01 | -6.84500 | 51.44336 | 37839 ft | 466 kts | 240° |
| 2026-04-27 14:02 | -6.87801 | 51.38715 | 37833 ft | 465 kts | 240° |
| 2026-04-27 14:02 | -6.91087 | 51.33116 | 37829 ft | 465 kts | 241° |
| 2026-04-27 14:03 | -6.94350 | 51.27555 | 37828 ft | 464 kts | 241° |
| 2026-04-27 14:03 | -6.97652 | 51.21925 | 37827 ft | 464 kts | 241° |
| 2026-04-27 14:04 | -7.00924 | 51.16345 | 37835 ft | 464 kts | 241° |
| 2026-04-27 14:04 | -7.04232 | 51.10700 | 37849 ft | 466 kts | 241° |
| 2026-04-27 14:05 | -7.07509 | 51.05108 | 37848 ft | 465 kts | 241° |
| 2026-04-27 14:05 | -7.10795 | 50.99498 | 37845 ft | 465 kts | 241° |
| 2026-04-27 14:06 | -7.14099 | 50.93855 | 37844 ft | 465 kts | 241° |
| 2026-04-27 14:06 | -7.17363 | 50.88279 | 37847 ft | 465 kts | 241° |
| 2026-04-27 14:07 | -7.20650 | 50.82661 | 37845 ft | 464 kts | 241° |
| 2026-04-27 14:07 | -7.23925 | 50.77061 | 37848 ft | 464 kts | 241° |
| 2026-04-27 14:08 | -7.27186 | 50.71485 | 37847 ft | 463 kts | 241° |
| 2026-04-27 14:08 | -7.30452 | 50.65897 | 37848 ft | 464 kts | 241° |
| 2026-04-27 14:09 | -7.33737 | 50.60274 | 37847 ft | 463 kts | 241° |
| 2026-04-27 14:09 | -7.36991 | 50.54704 | 37844 ft | 464 kts | 241° |
| 2026-04-27 14:10 | -7.40267 | 50.49092 | 37842 ft | 463 kts | 241° |
| 2026-04-27 14:10 | -7.43519 | 50.43520 | 37841 ft | 463 kts | 241° |
| 2026-04-27 14:11 | -7.46795 | 50.37905 | 37845 ft | 463 kts | 241° |
| 2026-04-27 14:11 | -7.50042 | 50.32338 | 37848 ft | 463 kts | 241° |
| 2026-04-27 14:12 | -7.53318 | 50.26719 | 37848 ft | 463 kts | 241° |
| 2026-04-27 14:12 | -7.56585 | 50.21114 | 37847 ft | 463 kts | 241° |
| 2026-04-27 14:13 | -7.59843 | 50.15521 | 37848 ft | 463 kts | 242° |
| 2026-04-27 14:13 | -7.63099 | 50.09930 | 37846 ft | 464 kts | 241° |
| 2026-04-27 14:14 | -7.66364 | 50.04321 | 37845 ft | 464 kts | 241° |
| 2026-04-27 14:14 | -7.69629 | 49.98710 | 37848 ft | 463 kts | 241° |
| 2026-04-27 14:15 | -7.72890 | 49.93105 | 37858 ft | 465 kts | 241° |
| 2026-04-27 14:15 | -7.76166 | 49.87470 | 37862 ft | 464 kts | 241° |
| 2026-04-27 14:16 | -7.79429 | 49.81856 | 37866 ft | 463 kts | 241° |
| 2026-04-27 14:16 | -7.82673 | 49.76274 | 37867 ft | 463 kts | 241° |
| 2026-04-27 14:17 | -7.85932 | 49.70663 | 37866 ft | 463 kts | 241° |
| 2026-04-27 14:17 | -7.89173 | 49.65081 | 37868 ft | 463 kts | 241° |
| 2026-04-27 14:18 | -7.92443 | 49.59447 | 37867 ft | 463 kts | 241° |
| 2026-04-27 14:18 | -7.95697 | 49.53837 | 37867 ft | 463 kts | 241° |
| 2026-04-27 14:19 | -7.98951 | 49.48227 | 37862 ft | 463 kts | 241° |
| 2026-04-27 14:19 | -8.02202 | 49.42641 | 37859 ft | 463 kts | 240° |
| 2026-04-27 14:20 | -8.05465 | 49.37058 | 37859 ft | 462 kts | 240° |
| 2026-04-27 14:20 | -8.08741 | 49.31448 | 37862 ft | 462 kts | 240° |
| 2026-04-27 14:21 | -8.12001 | 49.25861 | 37864 ft | 463 kts | 240° |
| 2026-04-27 14:21 | -8.15269 | 49.20260 | 37862 ft | 462 kts | 241° |
| 2026-04-27 14:22 | -8.18524 | 49.14677 | 37856 ft | 462 kts | 241° |
| 2026-04-27 14:22 | -8.21780 | 49.09091 | 37847 ft | 460 kts | 240° |
| 2026-04-27 14:23 | -8.25028 | 49.03516 | 37847 ft | 460 kts | 241° |
| 2026-04-27 14:23 | -8.28282 | 48.97929 | 37847 ft | 459 kts | 241° |
| 2026-04-27 14:24 | -8.31531 | 48.92348 | 37846 ft | 459 kts | 241° |
| 2026-04-27 14:24 | -8.34774 | 48.86774 | 37846 ft | 461 kts | 241° |
| 2026-04-27 14:25 | -8.38036 | 48.81166 | 37847 ft | 461 kts | 240° |
| 2026-04-27 14:25 | -8.41277 | 48.75594 | 37846 ft | 461 kts | 241° |
| 2026-04-27 14:26 | -8.44509 | 48.70032 | 37847 ft | 460 kts | 241° |
| 2026-04-27 14:26 | -8.47775 | 48.64410 | 37847 ft | 461 kts | 241° |
| 2026-04-27 14:27 | -8.51040 | 48.58786 | 38151 ft | 472 kts | 241° |
| 2026-04-27 14:27 | -8.52711 | 48.55909 | 39050 ft | 468 kts | 241° |
| 2026-04-27 14:27 | -8.54327 | 48.53125 | 39851 ft | 465 kts | 241° |
| 2026-04-27 14:28 | -8.57603 | 48.47479 | 39863 ft | 461 kts | 241° |
| 2026-04-27 14:28 | -8.60856 | 48.41870 | 39866 ft | 462 kts | 241° |
| 2026-04-27 14:29 | -8.64091 | 48.36290 | 39866 ft | 461 kts | 241° |
| 2026-04-27 14:29 | -8.67378 | 48.30618 | 39869 ft | 460 kts | 241° |
| 2026-04-27 14:30 | -8.70625 | 48.25012 | 39869 ft | 461 kts | 241° |
| 2026-04-27 14:30 | -8.73852 | 48.19439 | 39869 ft | 459 kts | 241° |
| 2026-04-27 14:31 | -8.77092 | 48.13840 | 39868 ft | 460 kts | 241° |
| 2026-04-27 14:31 | -8.80326 | 48.08250 | 39868 ft | 460 kts | 241° |
| 2026-04-27 14:32 | -8.83537 | 48.02697 | 39869 ft | 459 kts | 241° |
| 2026-04-27 14:32 | -8.86776 | 47.97093 | 39867 ft | 457 kts | 241° |
| 2026-04-27 14:33 | -8.89974 | 47.91559 | 39868 ft | 457 kts | 241° |
| 2026-04-27 14:33 | -8.93186 | 47.85997 | 39867 ft | 458 kts | 241° |
| 2026-04-27 14:34 | -8.96410 | 47.80411 | 39868 ft | 458 kts | 240° |
| 2026-04-27 14:34 | -8.99604 | 47.74875 | 39866 ft | 458 kts | 240° |
| 2026-04-27 14:35 | -9.02836 | 47.69271 | 39866 ft | 457 kts | 240° |
| 2026-04-27 14:35 | -9.06027 | 47.63738 | 39866 ft | 456 kts | 240° |
| 2026-04-27 14:36 | -9.09229 | 47.58181 | 39866 ft | 457 kts | 240° |
| 2026-04-27 14:36 | -9.12419 | 47.52642 | 39865 ft | 456 kts | 240° |
| 2026-04-27 14:37 | -9.15620 | 47.47081 | 39865 ft | 454 kts | 240° |
| 2026-04-27 14:37 | -9.18805 | 47.41547 | 39865 ft | 454 kts | 240° |
| 2026-04-27 14:38 | -9.21987 | 47.36016 | 39862 ft | 455 kts | 240° |
| 2026-04-27 14:38 | -9.25151 | 47.30513 | 39864 ft | 454 kts | 240° |
| 2026-04-27 14:39 | -9.28328 | 47.24984 | 39864 ft | 454 kts | 240° |
| 2026-04-27 14:39 | -9.31507 | 47.19451 | 39868 ft | 454 kts | 240° |
| 2026-04-27 14:40 | -9.34679 | 47.13926 | 39878 ft | 453 kts | 240° |
| 2026-04-27 14:40 | -9.37866 | 47.08374 | 39887 ft | 454 kts | 240° |
| 2026-04-27 14:41 | -9.41048 | 47.02827 | 39888 ft | 453 kts | 240° |
| 2026-04-27 14:41 | -9.44216 | 46.97303 | 39888 ft | 453 kts | 240° |
| 2026-04-27 14:42 | -9.47354 | 46.91827 | 39887 ft | 452 kts | 240° |
| 2026-04-27 14:42 | -9.50517 | 46.86305 | 39885 ft | 453 kts | 240° |
| 2026-04-27 14:43 | -9.53679 | 46.80783 | 39878 ft | 451 kts | 240° |
| 2026-04-27 14:43 | -9.56828 | 46.75282 | 39872 ft | 451 kts | 240° |
| 2026-04-27 14:44 | -9.59996 | 46.69744 | 39868 ft | 453 kts | 240° |
| 2026-04-27 14:44 | -9.63143 | 46.64243 | 39866 ft | 452 kts | 240° |
| 2026-04-27 14:45 | -9.66292 | 46.58732 | 39866 ft | 452 kts | 240° |
| 2026-04-27 14:45 | -9.69436 | 46.53229 | 39865 ft | 450 kts | 240° |
| 2026-04-27 14:46 | -9.72564 | 46.47752 | 39865 ft | 451 kts | 240° |
| 2026-04-27 14:46 | -9.75715 | 46.42230 | 39863 ft | 450 kts | 240° |
| 2026-04-27 14:47 | -9.78834 | 46.36763 | 39863 ft | 450 kts | 240° |
| 2026-04-27 14:47 | -9.81981 | 46.31246 | 39867 ft | 449 kts | 240° |
| 2026-04-27 14:48 | -9.85113 | 46.25751 | 39867 ft | 450 kts | 240° |
| 2026-04-27 14:48 | -9.89803 | 46.17516 | 39869 ft | 449 kts | 240° |
| 2026-04-27 14:49 | -9.92932 | 46.12020 | 39868 ft | 449 kts | 240° |
| 2026-04-27 14:49 | -9.96052 | 46.06537 | 39867 ft | 447 kts | 240° |
| 2026-04-27 14:50 | -9.99173 | 46.01051 | 39867 ft | 449 kts | 240° |
| 2026-04-27 14:50 | -10.02262 | 45.95576 | 39866 ft | 447 kts | 240° |
| 2026-04-27 14:51 | -10.05335 | 45.90093 | 39865 ft | 448 kts | 240° |
| 2026-04-27 14:51 | -10.07901 | 45.85517 | 39866 ft | 448 kts | 240° |
| 2026-04-27 14:52 | -10.11477 | 45.79135 | 39869 ft | 449 kts | 240° |
| 2026-04-27 14:52 | -10.14561 | 45.73628 | 39872 ft | 447 kts | 240° |
| 2026-04-27 14:53 | -10.17646 | 45.68119 | 39882 ft | 449 kts | 240° |
| 2026-04-27 14:53 | -10.20726 | 45.62615 | 39884 ft | 448 kts | 240° |
| 2026-04-27 14:54 | -10.23814 | 45.57096 | 39885 ft | 449 kts | 240° |
| 2026-04-27 14:54 | -10.26888 | 45.51597 | 39887 ft | 450 kts | 240° |
| 2026-04-27 14:55 | -10.29981 | 45.46062 | 39883 ft | 449 kts | 240° |
| 2026-04-27 14:55 | -10.33071 | 45.40531 | 39879 ft | 450 kts | 240° |
| 2026-04-27 14:56 | -10.36141 | 45.35032 | 39878 ft | 448 kts | 240° |
| 2026-04-27 14:56 | -10.39216 | 45.29521 | 39881 ft | 449 kts | 240° |
| 2026-04-27 14:57 | -10.42321 | 45.23954 | 39881 ft | 449 kts | 240° |
| 2026-04-27 14:57 | -10.45409 | 45.18414 | 39879 ft | 448 kts | 240° |
| 2026-04-27 14:58 | -10.48480 | 45.12901 | 39870 ft | 449 kts | 240° |
| 2026-04-27 14:58 | -10.51572 | 45.07350 | 39869 ft | 449 kts | 240° |
| 2026-04-27 14:59 | -10.54658 | 45.01806 | 39868 ft | 452 kts | 240° |
| 2026-04-27 14:59 | -10.57744 | 44.96258 | 39867 ft | 449 kts | 240° |
| 2026-04-27 15:00 | -10.60816 | 44.90734 | 39868 ft | 449 kts | 240° |
| 2026-04-27 15:00 | -10.63894 | 44.85195 | 39866 ft | 450 kts | 240° |
| 2026-04-27 15:01 | -10.66979 | 44.79640 | 39842 ft | 446 kts | 240° |
| 2026-04-27 15:01 | -10.68497 | 44.76905 | 39472 ft | 440 kts | 240° |
| 2026-04-27 15:01 | -10.70015 | 44.74172 | 38483 ft | 445 kts | 240° |
| 2026-04-27 15:02 | -10.71554 | 44.71400 | 37416 ft | 457 kts | 240° |
| 2026-04-27 15:02 | -10.73116 | 44.68585 | 36764 ft | 461 kts | 240° |
| 2026-04-27 15:02 | -10.74710 | 44.65711 | 36451 ft | 459 kts | 240° |
| 2026-04-27 15:02 | -10.76269 | 44.62900 | 36291 ft | 454 kts | 240° |
| 2026-04-27 15:03 | -10.77816 | 44.60109 | 35982 ft | 453 kts | 240° |
| 2026-04-27 15:03 | -10.79356 | 44.57332 | 35530 ft | 455 kts | 240° |
| 2026-04-27 15:03 | -10.80911 | 44.54525 | 35033 ft | 457 kts | 241° |
| 2026-04-27 15:03 | -10.82482 | 44.51689 | 34534 ft | 460 kts | 241° |
| 2026-04-27 15:04 | -10.84047 | 44.48862 | 34101 ft | 461 kts | 241° |
| 2026-04-27 15:04 | -10.85611 | 44.46038 | 33717 ft | 461 kts | 241° |
| 2026-04-27 15:04 | -10.87186 | 44.43192 | 33268 ft | 463 kts | 241° |
| 2026-04-27 15:04 | -10.88778 | 44.40315 | 32787 ft | 465 kts | 241° |
| 2026-04-27 15:05 | -10.90357 | 44.37461 | 32361 ft | 466 kts | 241° |
| 2026-04-27 15:05 | -10.91938 | 44.34601 | 31964 ft | 466 kts | 242° |
| 2026-04-27 15:05 | -10.93529 | 44.31727 | 31624 ft | 466 kts | 241° |
| 2026-04-27 15:05 | -10.95131 | 44.28863 | 31027 ft | 463 kts | 241° |
| 2026-04-27 15:06 | -10.96727 | 44.26015 | 30285 ft | 461 kts | 242° |
| 2026-04-27 15:06 | -10.98288 | 44.23229 | 29751 ft | 454 kts | 242° |
| 2026-04-27 15:06 | -10.99846 | 44.20446 | 29198 ft | 449 kts | 242° |
| 2026-04-27 15:06 | -11.01378 | 44.17709 | 28630 ft | 444 kts | 242° |
| 2026-04-27 15:07 | -11.02894 | 44.14998 | 28091 ft | 439 kts | 242° |
| 2026-04-27 15:07 | -11.04401 | 44.12302 | 27531 ft | 435 kts | 242° |
| 2026-04-27 15:07 | -11.05875 | 44.09665 | 26963 ft | 431 kts | 242° |
| 2026-04-27 15:07 | -11.07359 | 44.07010 | 26393 ft | 428 kts | 242° |
| 2026-04-27 15:08 | -11.08824 | 44.04386 | 25819 ft | 425 kts | 241° |
| 2026-04-27 15:08 | -11.10287 | 44.01766 | 25244 ft | 422 kts | 241° |
| 2026-04-27 15:08 | -11.11716 | 43.99205 | 24677 ft | 420 kts | 241° |
| 2026-04-27 15:08 | -11.13155 | 43.96626 | 24096 ft | 417 kts | 241° |
| 2026-04-27 15:09 | -11.14588 | 43.94059 | 23517 ft | 415 kts | 241° |
| 2026-04-27 15:09 | -11.16015 | 43.91500 | 22946 ft | 421 kts | 240° |
| 2026-04-27 15:09 | -11.17482 | 43.88869 | 22335 ft | 428 kts | 240° |
| 2026-04-27 15:09 | -11.18934 | 43.86263 | 21738 ft | 425 kts | 240° |
| 2026-04-27 15:10 | -11.20389 | 43.83653 | 21135 ft | 422 kts | 240° |
| 2026-04-27 15:10 | -11.21831 | 43.81066 | 20537 ft | 420 kts | 240° |
| 2026-04-27 15:10 | -11.23262 | 43.78497 | 19940 ft | 417 kts | 240° |
| 2026-04-27 15:10 | -11.24687 | 43.75938 | 19337 ft | 414 kts | 240° |
| 2026-04-27 15:11 | -11.26099 | 43.73402 | 18732 ft | 412 kts | 239° |
| 2026-04-27 15:11 | -11.27508 | 43.70870 | 18129 ft | 410 kts | 239° |
| 2026-04-27 15:11 | -11.28914 | 43.68345 | 17517 ft | 408 kts | 239° |
| 2026-04-27 15:11 | -11.30305 | 43.65845 | 16915 ft | 406 kts | 239° |
| 2026-04-27 15:12 | -11.31691 | 43.63353 | 16264 ft | 402 kts | 239° |
| 2026-04-27 15:12 | -11.33030 | 43.60945 | 15709 ft | 390 kts | 239° |
| 2026-04-27 15:12 | -11.34368 | 43.58538 | 15124 ft | 388 kts | 239° |
| 2026-04-27 15:12 | -11.35700 | 43.56142 | 14516 ft | 387 kts | 239° |
| 2026-04-27 15:13 | -11.37010 | 43.53785 | 13908 ft | 385 kts | 239° |
| 2026-04-27 15:13 | -11.38336 | 43.51399 | 13298 ft | 383 kts | 239° |
| 2026-04-27 15:13 | -11.39649 | 43.49034 | 12701 ft | 380 kts | 239° |
| 2026-04-27 15:13 | -11.40941 | 43.46708 | 12100 ft | 378 kts | 239° |
| 2026-04-27 15:14 | -11.42233 | 43.44381 | 11451 ft | 374 kts | 239° |
| 2026-04-27 15:14 | -11.43472 | 43.42147 | 10878 ft | 357 kts | 239° |
| 2026-04-27 15:14 | -11.44687 | 43.39959 | 10558 ft | 347 kts | 239° |
| 2026-04-27 15:14 | -11.45842 | 43.37875 | 10433 ft | 332 kts | 239° |
| 2026-04-27 15:15 | -11.46952 | 43.35873 | 10309 ft | 319 kts | 239° |
| 2026-04-27 15:15 | -11.48029 | 43.33931 | 10172 ft | 307 kts | 239° |
| 2026-04-27 15:15 | -11.49064 | 43.32065 | 10042 ft | 296 kts | 239° |
| 2026-04-27 15:15 | -11.50054 | 43.30279 | 9914 ft | 286 kts | 239° |
| 2026-04-27 15:16 | -11.51076 | 43.28569 | 9685 ft | 280 kts | 229° |
| 2026-04-27 15:16 | -11.52589 | 43.27334 | 9395 ft | 274 kts | 208° |
| 2026-04-27 15:16 | -11.54256 | 43.26497 | 9322 ft | 263 kts | 204° |
| 2026-04-27 15:16 | -11.55949 | 43.25742 | 9054 ft | 271 kts | 202° |
| 2026-04-27 15:17 | -11.57710 | 43.24978 | 8728 ft | 274 kts | 202° |
| 2026-04-27 15:17 | -11.59442 | 43.24228 | 8478 ft | 273 kts | 202° |
| 2026-04-27 15:17 | -11.61216 | 43.23460 | 8158 ft | 274 kts | 202° |
| 2026-04-27 15:17 | -11.62960 | 43.22704 | 7879 ft | 272 kts | 202° |
| 2026-04-27 15:18 | -11.64724 | 43.21939 | 7476 ft | 275 kts | 201° |
| 2026-04-27 15:18 | -11.66476 | 43.21179 | 7185 ft | 272 kts | 201° |
| 2026-04-27 15:18 | -11.68242 | 43.20413 | 6833 ft | 273 kts | 201° |
| 2026-04-27 15:18 | -11.70005 | 43.19648 | 6487 ft | 273 kts | 201° |
| 2026-04-27 15:19 | -11.71731 | 43.18899 | 6156 ft | 269 kts | 201° |
| 2026-04-27 15:19 | -11.73435 | 43.18159 | 5803 ft | 261 kts | 201° |
| 2026-04-27 15:19 | -11.75081 | 43.17444 | 5671 ft | 250 kts | 201° |
| 2026-04-27 15:19 | -11.76668 | 43.16768 | 5500 ft | 247 kts | 196° |
| 2026-04-27 15:20 | -11.78341 | 43.16593 | 5130 ft | 237 kts | 167° |
| 2026-04-27 15:20 | -11.79802 | 43.17251 | 4897 ft | 223 kts | 139° |
| 2026-04-27 15:20 | -11.80733 | 43.18472 | 4826 ft | 214 kts | 114° |
| 2026-04-27 15:20 | -11.81019 | 43.19912 | 4803 ft | 208 kts | 89° |
| 2026-04-27 15:21 | -11.80667 | 43.21353 | 4791 ft | 213 kts | 65° |
| 2026-04-27 15:21 | -11.79762 | 43.22537 | 4795 ft | 216 kts | 38° |
| 2026-04-27 15:21 | -11.78340 | 43.23072 | 4564 ft | 220 kts | 6° |
| 2026-04-27 15:21 | -11.76816 | 43.23119 | 4272 ft | 216 kts | 5° |
| 2026-04-27 15:22 | -11.75344 | 43.23260 | 4014 ft | 208 kts | 9° |
| 2026-04-27 15:22 | -11.73939 | 43.23480 | 3759 ft | 199 kts | 12° |
| 2026-04-27 15:22 | -11.72592 | 43.23732 | 3514 ft | 191 kts | 13° |
| 2026-04-27 15:22 | -11.71295 | 43.23983 | 3292 ft | 187 kts | 13° |
| 2026-04-27 15:23 | -11.70023 | 43.24216 | 3052 ft | 186 kts | 12° |
| 2026-04-27 15:23 | -11.68736 | 43.24446 | 2803 ft | 185 kts | 12° |
| 2026-04-27 15:23 | -11.67479 | 43.24671 | 2562 ft | 183 kts | 12° |
| 2026-04-27 15:23 | -11.66243 | 43.24892 | 2331 ft | 178 kts | 12° |
| 2026-04-27 15:24 | -11.65031 | 43.25109 | 2099 ft | 175 kts | 12° |
| 2026-04-27 15:24 | -11.63844 | 43.25320 | 1875 ft | 164 kts | 12° |
| 2026-04-27 15:24 | -11.62734 | 43.25521 | 1654 ft | 159 kts | 12° |
| 2026-04-27 15:24 | -11.61652 | 43.25715 | 1426 ft | 158 kts | 12° |
| 2026-04-27 15:25 | -11.60557 | 43.25906 | 1189 ft | 158 kts | 12° |
| 2026-04-27 15:25 | -11.59489 | 43.26096 | 964 ft | 157 kts | 12° |
| 2026-04-27 15:25 | -11.58397 | 43.26294 | 774 ft | 158 kts | 12° |
| 2026-04-27 15:25 | -11.57312 | 43.26481 | 592 ft | 158 kts | 12° |
| 2026-04-27 15:26 | -11.56212 | 43.26680 | 392 ft | 157 kts | 12° |
| 2026-04-27 15:26 | -11.55138 | 43.26867 | 187 ft | 155 kts | 12° |
| 2026-04-27 15:26 | -11.54104 | 43.27055 | 76 ft | 138 kts | 10° |
| 2026-04-27 15:26 | -11.53307 | 43.27195 | 107 ft | 93 kts | 10° |
| 2026-04-27 15:27 | -11.52806 | 43.27286 | 109 ft | 59 kts | 11° |
| 2026-04-27 15:27 | -11.52461 | 43.27347 | 101 ft | 34 kts | 9° |
| 2026-04-27 15:27 | -11.52272 | 43.27380 | 94 ft | 11 kts | 10° |
| 2026-04-27 15:27 | -11.52167 | 43.27415 | 88 ft | 19 kts | 36° |
| 2026-04-27 15:28 | -11.52101 | 43.27440 | 84 ft | 10 kts | 303° |
| 2026-04-27 15:28 | -11.52155 | 43.27400 | 87 ft | 14 kts | 189° |
| 2026-04-27 15:28 | -11.52290 | 43.27377 | 95 ft | 24 kts | 189° |
| 2026-04-27 15:28 | -11.52496 | 43.27341 | 102 ft | 34 kts | 189° |
| 2026-04-27 15:29 | -11.52715 | 43.27302 | 108 ft | 29 kts | 191° |
| 2026-04-27 15:29 | -11.52909 | 43.27267 | 110 ft | 27 kts | 189° |
| 2026-04-27 15:29 | -11.53089 | 43.27235 | 110 ft | 25 kts | 190° |
| 2026-04-27 15:29 | -11.53262 | 43.27204 | 108 ft | 24 kts | 190° |
| 2026-04-27 15:30 | -11.53433 | 43.27174 | 103 ft | 25 kts | 190° |
| 2026-04-27 15:30 | -11.53558 | 43.27152 | 99 ft | 7 kts | 190° |
| 2026-04-27 15:30 | -11.53625 | 43.27143 | 96 ft | 10 kts | 167° |
| 2026-04-27 15:30 | -11.53663 | 43.27203 | 97 ft | 9 kts | 101° |
| 2026-04-27 15:31 | -11.53671 | 43.27262 | 100 ft | 6 kts | 99° |
| 2026-04-27 15:31 | -11.53678 | 43.27303 | 102 ft | 5 kts | 98° |
| 2026-04-27 15:31 | -11.53682 | 43.27338 | 104 ft | 4 kts | 94° |
| 2026-04-27 15:31 | -11.53684 | 43.27374 | 105 ft | 6 kts | 93° |
| 2026-04-27 15:32 | -11.53691 | 43.27396 | 106 ft | 1 kts | 134° |
| 2026-04-27 15:32 | -11.53696 | 43.27399 | 106 ft | 1 kts | 155° |
| 2026-04-27 15:32 | -11.53709 | 43.27394 | 105 ft | 4 kts | 225° |
| 2026-04-27 15:32 | -11.53712 | 43.27391 | 105 ft | 0 kts | 233° |